Lyonsdale, New York
Current Conditions -  °F | °C
As of 5:43 PM on Wednesday 22 Oct 2014 (Local Time) from KRME Reporting Station
Overcast Overcast  
Wind Chill: 51°   Ceiling: 2200
Heat Index: 51°   Visibility: 10mi
Dew Point: 43°   Wind: 5mph
Humidity: 74%   Direction: NA
Pressure: 30.1"   Gusts: NA
Location:  43.6433°N, 75.3374°W
Report Text: KRME 222143Z VRB04KT 10SM BKN022 OVC060 11/06 A3010 RMK AO2 RAB29E40 P0000 T01060061
Loading
Personal Weather Stations






























Interactive Weather Map
Tropical Storm Tracking
New forecast layout! Learn more

10-Day Weather Forecast

Advertisements
Track Severe Weather on mobile